sensor_id;sensor_type;location;lat;lon;timestamp;P1;durP1;ratioP1;P2;durP2;ratioP2
68196;SDS011;55019;49.382;11.358;2022-07-29T00:00:09;4.23;;;1.77;;
68196;SDS011;55019;49.382;11.358;2022-07-29T00:02:35;4.20;;;2.00;;
68196;SDS011;55019;49.382;11.358;2022-07-29T00:05:01;3.83;;;1.90;;
68196;SDS011;55019;49.382;11.358;2022-07-29T00:07:27;5.15;;;2.08;;
68196;SDS011;55019;49.382;11.358;2022-07-29T00:09:54;4.93;;;2.10;;
68196;SDS011;55019;49.382;11.358;2022-07-29T00:12:21;2.67;;;1.90;;
68196;SDS011;55019;49.382;11.358;2022-07-29T00:14:48;3.70;;;2.13;;
68196;SDS011;55019;49.382;11.358;2022-07-29T00:17:14;3.37;;;1.87;;
68196;SDS011;55019;49.382;11.358;2022-07-29T00:19:39;2.22;;;1.65;;
68196;SDS011;55019;49.382;11.358;2022-07-29T00:22:04;6.93;;;1.83;;
68196;SDS011;55019;49.382;11.358;2022-07-29T00:24:30;1.83;;;1.73;;
68196;SDS011;55019;49.382;11.358;2022-07-29T00:26:55;5.73;;;1.90;;
68196;SDS011;55019;49.382;11.358;2022-07-29T00:29:21;3.90;;;1.60;;
68196;SDS011;55019;49.382;11.358;2022-07-29T00:31:46;2.20;;;2.00;;
68196;SDS011;55019;49.382;11.358;2022-07-29T00:34:11;2.33;;;1.70;;
68196;SDS011;55019;49.382;11.358;2022-07-29T00:36:56;2.55;;;1.88;;
68196;SDS011;55019;49.382;11.358;2022-07-29T00:39:22;2.78;;;2.05;;
68196;SDS011;55019;49.382;11.358;2022-07-29T00:41:47;4.57;;;2.00;;
68196;SDS011;55019;49.382;11.358;2022-07-29T00:44:13;2.55;;;1.50;;
68196;SDS011;55019;49.382;11.358;2022-07-29T00:46:39;1.87;;;1.77;;
68196;SDS011;55019;49.382;11.358;2022-07-29T00:49:04;3.13;;;1.87;;
68196;SDS011;55019;49.382;11.358;2022-07-29T00:51:30;2.15;;;1.95;;
68196;SDS011;55019;49.382;11.358;2022-07-29T00:53:55;5.07;;;1.70;;
68196;SDS011;55019;49.382;11.358;2022-07-29T00:56:21;6.22;;;2.03;;
68196;SDS011;55019;49.382;11.358;2022-07-29T00:58:47;6.20;;;1.77;;
68196;SDS011;55019;49.382;11.358;2022-07-29T01:01:18;5.53;;;2.20;;
68196;SDS011;55019;49.382;11.358;2022-07-29T01:03:43;7.00;;;1.80;;
68196;SDS011;55019;49.382;11.358;2022-07-29T01:06:09;3.40;;;2.00;;
68196;SDS011;55019;49.382;11.358;2022-07-29T01:08:34;3.05;;;2.00;;
68196;SDS011;55019;49.382;11.358;2022-07-29T01:11:01;2.93;;;2.13;;
68196;SDS011;55019;49.382;11.358;2022-07-29T01:13:27;2.55;;;2.00;;
68196;SDS011;55019;49.382;11.358;2022-07-29T01:15:56;5.80;;;1.98;;
68196;SDS011;55019;49.382;11.358;2022-07-29T01:18:34;5.38;;;1.88;;
68196;SDS011;55019;49.382;11.358;2022-07-29T01:30:10;4.13;;;2.33;;
68196;SDS011;55019;49.382;11.358;2022-07-29T01:32:36;6.03;;;2.15;;
68196;SDS011;55019;49.382;11.358;2022-07-29T01:37:57;4.00;;;1.93;;
68196;SDS011;55019;49.382;11.358;2022-07-29T01:40:34;4.13;;;2.22;;
68196;SDS011;55019;49.382;11.358;2022-07-29T01:43:16;4.63;;;2.13;;
68196;SDS011;55019;49.382;11.358;2022-07-29T01:45:56;4.93;;;2.03;;
68196;SDS011;55019;49.382;11.358;2022-07-29T01:51:14;5.10;;;2.20;;
68196;SDS011;55019;49.382;11.358;2022-07-29T01:54:18;2.83;;;1.83;;
68196;SDS011;55019;49.382;11.358;2022-07-29T01:56:50;6.38;;;2.95;;
68196;SDS011;55019;49.382;11.358;2022-07-29T01:59:18;3.50;;;2.42;;
68196;SDS011;55019;49.382;11.358;2022-07-29T02:01:45;3.45;;;2.28;;
68196;SDS011;55019;49.382;11.358;2022-07-29T02:04:13;2.80;;;2.03;;
68196;SDS011;55019;49.382;11.358;2022-07-29T02:06:42;5.10;;;2.20;;
68196;SDS011;55019;49.382;11.358;2022-07-29T02:09:09;9.00;;;2.10;;
68196;SDS011;55019;49.382;11.358;2022-07-29T02:11:37;5.10;;;2.25;;
68196;SDS011;55019;49.382;11.358;2022-07-29T02:14:04;4.85;;;2.35;;
68196;SDS011;55019;49.382;11.358;2022-07-29T02:16:30;3.10;;;1.80;;
68196;SDS011;55019;49.382;11.358;2022-07-29T02:18:58;4.30;;;2.20;;
68196;SDS011;55019;49.382;11.358;2022-07-29T02:21:26;4.95;;;2.10;;
68196;SDS011;55019;49.382;11.358;2022-07-29T02:23:54;3.85;;;2.30;;
68196;SDS011;55019;49.382;11.358;2022-07-29T02:26:23;5.10;;;1.80;;
68196;SDS011;55019;49.382;11.358;2022-07-29T02:28:51;7.83;;;2.10;;
68196;SDS011;55019;49.382;11.358;2022-07-29T02:31:24;4.28;;;1.98;;
68196;SDS011;55019;49.382;11.358;2022-07-29T02:33:54;3.92;;;1.90;;
68196;SDS011;55019;49.382;11.358;2022-07-29T02:36:22;3.00;;;1.80;;
68196;SDS011;55019;49.382;11.358;2022-07-29T02:38:49;3.47;;;1.90;;
68196;SDS011;55019;49.382;11.358;2022-07-29T02:42:01;4.50;;;1.90;;
68196;SDS011;55019;49.382;11.358;2022-07-29T02:44:10;1.90;;;1.80;;
68196;SDS011;55019;49.382;11.358;2022-07-29T02:46:37;3.25;;;2.05;;
68196;SDS011;55019;49.382;11.358;2022-07-29T02:49:15;2.42;;;1.95;;
68196;SDS011;55019;49.382;11.358;2022-07-29T02:51:58;12.82;;;2.80;;
68196;SDS011;55019;49.382;11.358;2022-07-29T02:54:40;2.50;;;1.97;;
68196;SDS011;55019;49.382;11.358;2022-07-29T02:57:13;3.75;;;2.15;;
68196;SDS011;55019;49.382;11.358;2022-07-29T02:59:44;4.25;;;2.30;;
68196;SDS011;55019;49.382;11.358;2022-07-29T03:02:13;8.30;;;2.20;;
68196;SDS011;55019;49.382;11.358;2022-07-29T03:04:39;6.13;;;2.83;;
68196;SDS011;55019;49.382;11.358;2022-07-29T03:07:07;4.70;;;1.80;;
68196;SDS011;55019;49.382;11.358;2022-07-29T03:09:34;5.55;;;2.00;;
68196;SDS011;55019;49.382;11.358;2022-07-29T03:12:00;9.85;;;2.30;;
68196;SDS011;55019;49.382;11.358;2022-07-29T03:14:26;3.00;;;2.80;;
68196;SDS011;55019;49.382;11.358;2022-07-29T03:16:52;4.22;;;2.60;;
68196;SDS011;55019;49.382;11.358;2022-07-29T03:19:19;2.72;;;2.53;;
68196;SDS011;55019;49.382;11.358;2022-07-29T03:21:45;5.93;;;2.33;;
68196;SDS011;55019;49.382;11.358;2022-07-29T03:24:23;4.95;;;2.33;;
68196;SDS011;55019;49.382;11.358;2022-07-29T03:27:07;5.15;;;2.40;;
68196;SDS011;55019;49.382;11.358;2022-07-29T03:29:32;3.07;;;2.10;;
68196;SDS011;55019;49.382;11.358;2022-07-29T03:31:58;2.70;;;2.43;;
68196;SDS011;55019;49.382;11.358;2022-07-29T03:34:23;5.30;;;2.67;;
68196;SDS011;55019;49.382;11.358;2022-07-29T03:36:49;4.03;;;2.40;;
68196;SDS011;55019;49.382;11.358;2022-07-29T03:39:15;6.97;;;2.53;;
68196;SDS011;55019;49.382;11.358;2022-07-29T03:41:44;4.07;;;2.35;;
68196;SDS011;55019;49.382;11.358;2022-07-29T03:44:12;2.78;;;2.10;;
68196;SDS011;55019;49.382;11.358;2022-07-29T03:46:40;4.00;;;2.35;;
68196;SDS011;55019;49.382;11.358;2022-07-29T03:49:09;5.30;;;2.50;;
68196;SDS011;55019;49.382;11.358;2022-07-29T03:51:37;2.92;;;2.03;;
68196;SDS011;55019;49.382;11.358;2022-07-29T03:54:03;5.20;;;2.30;;
68196;SDS011;55019;49.382;11.358;2022-07-29T03:56:30;3.90;;;2.03;;
68196;SDS011;55019;49.382;11.358;2022-07-29T03:58:59;5.00;;;2.50;;
68196;SDS011;55019;49.382;11.358;2022-07-29T04:01:27;2.80;;;2.50;;
68196;SDS011;55019;49.382;11.358;2022-07-29T04:03:54;3.10;;;2.22;;
68196;SDS011;55019;49.382;11.358;2022-07-29T04:06:20;3.00;;;2.60;;
68196;SDS011;55019;49.382;11.358;2022-07-29T04:08:46;2.53;;;2.10;;
68196;SDS011;55019;49.382;11.358;2022-07-29T04:11:11;2.88;;;2.28;;
68196;SDS011;55019;49.382;11.358;2022-07-29T04:13:37;2.83;;;2.57;;
68196;SDS011;55019;49.382;11.358;2022-07-29T04:16:10;3.58;;;2.15;;
68196;SDS011;55019;49.382;11.358;2022-07-29T04:18:35;3.33;;;2.10;;
68196;SDS011;55019;49.382;11.358;2022-07-29T04:21:01;2.53;;;2.20;;
68196;SDS011;55019;49.382;11.358;2022-07-29T04:23:36;4.63;;;2.10;;
68196;SDS011;55019;49.382;11.358;2022-07-29T04:26:01;2.53;;;2.30;;
68196;SDS011;55019;49.382;11.358;2022-07-29T04:28:27;5.30;;;2.30;;
68196;SDS011;55019;49.382;11.358;2022-07-29T04:30:53;2.90;;;2.70;;
68196;SDS011;55019;49.382;11.358;2022-07-29T04:33:18;3.20;;;2.40;;
68196;SDS011;55019;49.382;11.358;2022-07-29T04:35:43;4.37;;;2.43;;
68196;SDS011;55019;49.382;11.358;2022-07-29T04:38:09;6.63;;;2.23;;
68196;SDS011;55019;49.382;11.358;2022-07-29T04:40:34;5.77;;;2.87;;
68196;SDS011;55019;49.382;11.358;2022-07-29T04:43:00;2.60;;;2.40;;
68196;SDS011;55019;49.382;11.358;2022-07-29T04:45:26;3.55;;;2.15;;
68196;SDS011;55019;49.382;11.358;2022-07-29T04:47:52;2.97;;;2.30;;
68196;SDS011;55019;49.382;11.358;2022-07-29T04:50:17;3.53;;;2.30;;
68196;SDS011;55019;49.382;11.358;2022-07-29T04:52:42;7.03;;;2.43;;
68196;SDS011;55019;49.382;11.358;2022-07-29T04:55:08;4.60;;;2.43;;
68196;SDS011;55019;49.382;11.358;2022-07-29T04:57:34;4.13;;;2.42;;
68196;SDS011;55019;49.382;11.358;2022-07-29T04:59:59;5.83;;;2.60;;
68196;SDS011;55019;49.382;11.358;2022-07-29T05:02:25;4.20;;;2.30;;
68196;SDS011;55019;49.382;11.358;2022-07-29T05:04:50;3.93;;;2.60;;
68196;SDS011;55019;49.382;11.358;2022-07-29T05:07:16;3.27;;;2.57;;
68196;SDS011;55019;49.382;11.358;2022-07-29T05:09:41;3.33;;;2.53;;
68196;SDS011;55019;49.382;11.358;2022-07-29T05:12:07;3.50;;;2.28;;
68196;SDS011;55019;49.382;11.358;2022-07-29T05:14:32;4.33;;;2.10;;
68196;SDS011;55019;49.382;11.358;2022-07-29T05:16:58;2.63;;;2.27;;
68196;SDS011;55019;49.382;11.358;2022-07-29T05:19:23;5.40;;;2.53;;
68196;SDS011;55019;49.382;11.358;2022-07-29T05:21:49;3.53;;;2.40;;
68196;SDS011;55019;49.382;11.358;2022-07-29T05:24:14;3.13;;;2.27;;
68196;SDS011;55019;49.382;11.358;2022-07-29T05:26:40;5.18;;;2.20;;
68196;SDS011;55019;49.382;11.358;2022-07-29T05:29:05;3.50;;;2.63;;
68196;SDS011;55019;49.382;11.358;2022-07-29T05:31:31;2.90;;;2.60;;
68196;SDS011;55019;49.382;11.358;2022-07-29T05:33:56;9.23;;;2.60;;
68196;SDS011;55019;49.382;11.358;2022-07-29T05:36:22;2.40;;;2.00;;
68196;SDS011;55019;49.382;11.358;2022-07-29T05:38:47;4.77;;;2.33;;
68196;SDS011;55019;49.382;11.358;2022-07-29T05:41:12;8.33;;;2.40;;
68196;SDS011;55019;49.382;11.358;2022-07-29T05:43:38;4.43;;;2.65;;
68196;SDS011;55019;49.382;11.358;2022-07-29T05:46:13;2.80;;;2.37;;
68196;SDS011;55019;49.382;11.358;2022-07-29T05:48:39;8.23;;;3.00;;
68196;SDS011;55019;49.382;11.358;2022-07-29T05:51:10;7.50;;;3.77;;
68196;SDS011;55019;49.382;11.358;2022-07-29T05:53:35;5.35;;;3.05;;
68196;SDS011;55019;49.382;11.358;2022-07-29T05:56:10;3.63;;;2.20;;
68196;SDS011;55019;49.382;11.358;2022-07-29T05:58:36;4.32;;;2.60;;
68196;SDS011;55019;49.382;11.358;2022-07-29T06:01:01;6.00;;;2.83;;
68196;SDS011;55019;49.382;11.358;2022-07-29T06:03:27;8.57;;;3.17;;
68196;SDS011;55019;49.382;11.358;2022-07-29T06:05:54;5.22;;;2.40;;
68196;SDS011;55019;49.382;11.358;2022-07-29T06:08:19;3.67;;;2.30;;
68196;SDS011;55019;49.382;11.358;2022-07-29T06:10:44;10.70;;;2.33;;
68196;SDS011;55019;49.382;11.358;2022-07-29T06:13:10;2.60;;;2.25;;
68196;SDS011;55019;49.382;11.358;2022-07-29T06:15:36;4.23;;;2.33;;
68196;SDS011;55019;49.382;11.358;2022-07-29T06:18:02;5.60;;;2.38;;
68196;SDS011;55019;49.382;11.358;2022-07-29T06:20:28;5.97;;;2.43;;
68196;SDS011;55019;49.382;11.358;2022-07-29T06:22:57;4.97;;;1.58;;
68196;SDS011;55019;49.382;11.358;2022-07-29T06:25:23;3.75;;;2.00;;
68196;SDS011;55019;49.382;11.358;2022-07-29T06:27:48;5.50;;;2.27;;
68196;SDS011;55019;49.382;11.358;2022-07-29T06:30:13;4.07;;;2.27;;
68196;SDS011;55019;49.382;11.358;2022-07-29T06:32:39;5.50;;;2.30;;
68196;SDS011;55019;49.382;11.358;2022-07-29T06:35:04;3.97;;;2.20;;
68196;SDS011;55019;49.382;11.358;2022-07-29T06:37:30;4.20;;;2.10;;
68196;SDS011;55019;49.382;11.358;2022-07-29T06:39:56;3.47;;;2.20;;
68196;SDS011;55019;49.382;11.358;2022-07-29T06:42:43;5.00;;;2.40;;
68196;SDS011;55019;49.382;11.358;2022-07-29T06:45:09;7.78;;;2.55;;
68196;SDS011;55019;49.382;11.358;2022-07-29T06:47:38;6.15;;;2.30;;
68196;SDS011;55019;49.382;11.358;2022-07-29T06:50:04;6.67;;;2.90;;
68196;SDS011;55019;49.382;11.358;2022-07-29T06:52:29;2.40;;;2.10;;
68196;SDS011;55019;49.382;11.358;2022-07-29T06:54:55;5.87;;;2.37;;
68196;SDS011;55019;49.382;11.358;2022-07-29T06:57:21;2.55;;;2.35;;
68196;SDS011;55019;49.382;11.358;2022-07-29T06:59:46;7.90;;;2.40;;
68196;SDS011;55019;49.382;11.358;2022-07-29T07:02:12;4.70;;;2.05;;
68196;SDS011;55019;49.382;11.358;2022-07-29T07:04:37;4.07;;;2.30;;
68196;SDS011;55019;49.382;11.358;2022-07-29T07:07:03;9.07;;;2.60;;
68196;SDS011;55019;49.382;11.358;2022-07-29T07:09:28;2.90;;;2.33;;
68196;SDS011;55019;49.382;11.358;2022-07-29T07:11:54;2.47;;;2.20;;
68196;SDS011;55019;49.382;11.358;2022-07-29T07:14:19;6.07;;;3.37;;
68196;SDS011;55019;49.382;11.358;2022-07-29T07:16:44;5.87;;;2.50;;
68196;SDS011;55019;49.382;11.358;2022-07-29T07:19:10;10.77;;;2.37;;
68196;SDS011;55019;49.382;11.358;2022-07-29T07:21:35;3.57;;;2.60;;
68196;SDS011;55019;49.382;11.358;2022-07-29T07:24:00;3.00;;;2.50;;
68196;SDS011;55019;49.382;11.358;2022-07-29T07:26:26;3.30;;;2.53;;
68196;SDS011;55019;49.382;11.358;2022-07-29T07:28:52;10.65;;;2.92;;
68196;SDS011;55019;49.382;11.358;2022-07-29T07:31:20;3.40;;;2.60;;
68196;SDS011;55019;49.382;11.358;2022-07-29T07:33:46;5.75;;;2.40;;
68196;SDS011;55019;49.382;11.358;2022-07-29T07:36:11;3.93;;;2.80;;
68196;SDS011;55019;49.382;11.358;2022-07-29T07:38:37;6.53;;;2.70;;
68196;SDS011;55019;49.382;11.358;2022-07-29T07:41:02;6.23;;;2.80;;
68196;SDS011;55019;49.382;11.358;2022-07-29T07:43:28;3.20;;;2.50;;
68196;SDS011;55019;49.382;11.358;2022-07-29T07:45:53;3.07;;;2.80;;
68196;SDS011;55019;49.382;11.358;2022-07-29T07:48:18;3.93;;;2.67;;
68196;SDS011;55019;49.382;11.358;2022-07-29T07:50:44;6.85;;;2.83;;
68196;SDS011;55019;49.382;11.358;2022-07-29T07:53:09;2.83;;;2.57;;
68196;SDS011;55019;49.382;11.358;2022-07-29T07:55:39;8.23;;;2.90;;
68196;SDS011;55019;49.382;11.358;2022-07-29T07:58:06;7.50;;;2.80;;
68196;SDS011;55019;49.382;11.358;2022-07-29T08:00:31;4.47;;;2.77;;
68196;SDS011;55019;49.382;11.358;2022-07-29T08:02:57;4.22;;;2.92;;
68196;SDS011;55019;49.382;11.358;2022-07-29T08:05:26;3.20;;;2.30;;
68196;SDS011;55019;49.382;11.358;2022-07-29T08:07:51;4.57;;;2.80;;
68196;SDS011;55019;49.382;11.358;2022-07-29T08:10:17;10.53;;;3.40;;
68196;SDS011;55019;49.382;11.358;2022-07-29T08:13:07;3.00;;;2.80;;
68196;SDS011;55019;49.382;11.358;2022-07-29T08:15:34;5.28;;;2.70;;
68196;SDS011;55019;49.382;11.358;2022-07-29T08:18:01;4.33;;;3.20;;
68196;SDS011;55019;49.382;11.358;2022-07-29T08:20:26;3.00;;;2.60;;
68196;SDS011;55019;49.382;11.358;2022-07-29T08:22:52;5.97;;;2.90;;
68196;SDS011;55019;49.382;11.358;2022-07-29T08:25:18;5.72;;;3.15;;
68196;SDS011;55019;49.382;11.358;2022-07-29T08:27:48;4.47;;;2.72;;
68196;SDS011;55019;49.382;11.358;2022-07-29T08:30:14;4.88;;;2.83;;
68196;SDS011;55019;49.382;11.358;2022-07-29T08:32:39;6.57;;;3.13;;
68196;SDS011;55019;49.382;11.358;2022-07-29T08:35:05;5.13;;;2.97;;
68196;SDS011;55019;49.382;11.358;2022-07-29T08:37:30;5.20;;;2.55;;
68196;SDS011;55019;49.382;11.358;2022-07-29T08:39:56;4.10;;;2.67;;
68196;SDS011;55019;49.382;11.358;2022-07-29T08:42:21;3.43;;;2.50;;
68196;SDS011;55019;49.382;11.358;2022-07-29T08:44:47;5.67;;;2.47;;
68196;SDS011;55019;49.382;11.358;2022-07-29T08:47:13;5.33;;;2.90;;
68196;SDS011;55019;49.382;11.358;2022-07-29T08:49:39;4.43;;;2.70;;
68196;SDS011;55019;49.382;11.358;2022-07-29T08:52:06;5.38;;;2.65;;
68196;SDS011;55019;49.382;11.358;2022-07-29T08:54:32;5.70;;;3.00;;
68196;SDS011;55019;49.382;11.358;2022-07-29T08:56:58;6.53;;;3.00;;
68196;SDS011;55019;49.382;11.358;2022-07-29T08:59:26;3.08;;;2.85;;
68196;SDS011;55019;49.382;11.358;2022-07-29T09:01:53;9.20;;;2.83;;
68196;SDS011;55019;49.382;11.358;2022-07-29T09:04:19;4.30;;;2.85;;
68196;SDS011;55019;49.382;11.358;2022-07-29T09:06:46;7.90;;;3.17;;
68196;SDS011;55019;49.382;11.358;2022-07-29T09:09:14;4.50;;;2.67;;
68196;SDS011;55019;49.382;11.358;2022-07-29T09:11:40;12.05;;;3.85;;
68196;SDS011;55019;49.382;11.358;2022-07-29T09:14:07;4.45;;;3.05;;
68196;SDS011;55019;49.382;11.358;2022-07-29T09:16:43;5.25;;;3.17;;
68196;SDS011;55019;49.382;11.358;2022-07-29T09:19:19;7.13;;;3.00;;
68196;SDS011;55019;49.382;11.358;2022-07-29T09:21:45;5.40;;;3.57;;
68196;SDS011;55019;49.382;11.358;2022-07-29T09:24:23;6.80;;;3.33;;
68196;SDS011;55019;49.382;11.358;2022-07-29T09:26:50;4.55;;;3.15;;
68196;SDS011;55019;49.382;11.358;2022-07-29T09:29:17;8.17;;;2.90;;
68196;SDS011;55019;49.382;11.358;2022-07-29T09:31:45;5.97;;;3.30;;
68196;SDS011;55019;49.382;11.358;2022-07-29T09:34:16;7.88;;;3.53;;
68196;SDS011;55019;49.382;11.358;2022-07-29T09:36:48;5.15;;;2.80;;
68196;SDS011;55019;49.382;11.358;2022-07-29T09:39:17;10.35;;;2.75;;
68196;SDS011;55019;49.382;11.358;2022-07-29T09:41:54;6.70;;;3.00;;
68196;SDS011;55019;49.382;11.358;2022-07-29T09:44:21;6.28;;;3.20;;
68196;SDS011;55019;49.382;11.358;2022-07-29T09:46:58;10.00;;;3.35;;
68196;SDS011;55019;49.382;11.358;2022-07-29T09:49:31;6.00;;;3.15;;
68196;SDS011;55019;49.382;11.358;2022-07-29T09:52:02;4.20;;;3.05;;
68196;SDS011;55019;49.382;11.358;2022-07-29T09:54:29;4.13;;;3.40;;
68196;SDS011;55019;49.382;11.358;2022-07-29T09:57:01;8.90;;;3.58;;
68196;SDS011;55019;49.382;11.358;2022-07-29T09:59:28;4.03;;;3.17;;
68196;SDS011;55019;49.382;11.358;2022-07-29T10:01:53;5.20;;;3.30;;
68196;SDS011;55019;49.382;11.358;2022-07-29T10:04:19;7.40;;;3.53;;
68196;SDS011;55019;49.382;11.358;2022-07-29T10:06:58;6.40;;;3.35;;
68196;SDS011;55019;49.382;11.358;2022-07-29T10:09:25;7.47;;;3.50;;
68196;SDS011;55019;49.382;11.358;2022-07-29T10:12:09;3.73;;;3.27;;
68196;SDS011;55019;49.382;11.358;2022-07-29T10:14:41;7.43;;;3.20;;
68196;SDS011;55019;49.382;11.358;2022-07-29T10:17:08;4.57;;;3.20;;
68196;SDS011;55019;49.382;11.358;2022-07-29T10:19:35;4.53;;;3.70;;
68196;SDS011;55019;49.382;11.358;2022-07-29T10:22:03;4.30;;;3.20;;
68196;SDS011;55019;49.382;11.358;2022-07-29T10:24:32;5.75;;;3.30;;
68196;SDS011;55019;49.382;11.358;2022-07-29T10:26:58;7.45;;;3.17;;
68196;SDS011;55019;49.382;11.358;2022-07-29T10:29:25;8.90;;;3.42;;
68196;SDS011;55019;49.382;11.358;2022-07-29T10:34:51;5.38;;;3.38;;
68196;SDS011;55019;49.382;11.358;2022-07-29T10:40:57;12.70;;;3.40;;
68196;SDS011;55019;49.382;11.358;2022-07-29T10:43:51;4.03;;;3.70;;
68196;SDS011;55019;49.382;11.358;2022-07-29T10:46:38;6.13;;;3.67;;
68196;SDS011;55019;49.382;11.358;2022-07-29T10:49:06;5.63;;;3.28;;
68196;SDS011;55019;49.382;11.358;2022-07-29T10:54:41;5.53;;;3.67;;
68196;SDS011;55019;49.382;11.358;2022-07-29T10:59:44;5.33;;;3.13;;
68196;SDS011;55019;49.382;11.358;2022-07-29T11:07:36;5.95;;;3.63;;
68196;SDS011;55019;49.382;11.358;2022-07-29T11:15:09;6.15;;;3.88;;
68196;SDS011;55019;49.382;11.358;2022-07-29T11:31:45;4.30;;;3.90;;
68196;SDS011;55019;49.382;11.358;2022-07-29T11:44:54;4.28;;;3.88;;
68196;SDS011;55019;49.382;11.358;2022-07-29T11:47:35;5.93;;;3.70;;
68196;SDS011;55019;49.382;11.358;2022-07-29T11:50:17;5.05;;;3.85;;
68196;SDS011;55019;49.382;11.358;2022-07-29T11:52:52;4.60;;;3.70;;
68196;SDS011;55019;49.382;11.358;2022-07-29T11:55:19;4.38;;;3.97;;
68196;SDS011;55019;49.382;11.358;2022-07-29T11:57:48;4.07;;;3.75;;
68196;SDS011;55019;49.382;11.358;2022-07-29T12:00:22;8.00;;;3.92;;
68196;SDS011;55019;49.382;11.358;2022-07-29T12:03:11;10.33;;;3.43;;
68196;SDS011;55019;49.382;11.358;2022-07-29T12:05:38;4.07;;;3.75;;
68196;SDS011;55019;49.382;11.358;2022-07-29T12:08:10;6.57;;;4.07;;
68196;SDS011;55019;49.382;11.358;2022-07-29T12:10:39;6.68;;;4.05;;
68196;SDS011;55019;49.382;11.358;2022-07-29T12:13:06;6.17;;;3.63;;
68196;SDS011;55019;49.382;11.358;2022-07-29T12:15:32;4.50;;;4.20;;
68196;SDS011;55019;49.382;11.358;2022-07-29T12:18:11;5.93;;;4.00;;
68196;SDS011;55019;49.382;11.358;2022-07-29T12:20:40;4.53;;;4.07;;
68196;SDS011;55019;49.382;11.358;2022-07-29T12:23:06;8.73;;;3.10;;
68196;SDS011;55019;49.382;11.358;2022-07-29T12:25:42;4.55;;;4.00;;
68196;SDS011;55019;49.382;11.358;2022-07-29T12:28:10;6.88;;;4.20;;
68196;SDS011;55019;49.382;11.358;2022-07-29T12:30:47;10.70;;;4.10;;
68196;SDS011;55019;49.382;11.358;2022-07-29T12:33:18;4.55;;;4.03;;
68196;SDS011;55019;49.382;11.358;2022-07-29T12:35:47;6.05;;;4.35;;
68196;SDS011;55019;49.382;11.358;2022-07-29T12:38:15;4.47;;;3.80;;
68196;SDS011;55019;49.382;11.358;2022-07-29T12:40:40;4.97;;;4.53;;
68196;SDS011;55019;49.382;11.358;2022-07-29T12:43:08;5.10;;;3.45;;
68196;SDS011;55019;49.382;11.358;2022-07-29T12:45:37;5.55;;;3.55;;
68196;SDS011;55019;49.382;11.358;2022-07-29T12:48:05;6.25;;;4.28;;
68196;SDS011;55019;49.382;11.358;2022-07-29T12:50:37;5.47;;;3.57;;
68196;SDS011;55019;49.382;11.358;2022-07-29T12:53:20;7.30;;;4.13;;
68196;SDS011;55019;49.382;11.358;2022-07-29T12:55:47;4.90;;;3.90;;
68196;SDS011;55019;49.382;11.358;2022-07-29T12:58:27;4.13;;;2.73;;
68196;SDS011;55019;49.382;11.358;2022-07-29T13:01:26;3.70;;;2.67;;
68196;SDS011;55019;49.382;11.358;2022-07-29T13:09:11;4.15;;;1.80;;
68196;SDS011;55019;49.382;11.358;2022-07-29T13:11:42;2.80;;;2.20;;
68196;SDS011;55019;49.382;11.358;2022-07-29T13:14:08;6.40;;;2.00;;
68196;SDS011;55019;49.382;11.358;2022-07-29T13:16:35;3.15;;;2.85;;
68196;SDS011;55019;49.382;11.358;2022-07-29T13:19:06;2.20;;;2.00;;
68196;SDS011;55019;49.382;11.358;2022-07-29T13:21:37;2.78;;;2.15;;
68196;SDS011;55019;49.382;11.358;2022-07-29T13:24:04;2.10;;;1.90;;
68196;SDS011;55019;49.382;11.358;2022-07-29T13:26:31;7.22;;;2.42;;
68196;SDS011;55019;49.382;11.358;2022-07-29T13:28:57;12.38;;;2.40;;
68196;SDS011;55019;49.382;11.358;2022-07-29T13:31:23;4.97;;;2.73;;
68196;SDS011;55019;49.382;11.358;2022-07-29T13:33:49;5.70;;;2.90;;
68196;SDS011;55019;49.382;11.358;2022-07-29T13:36:14;7.37;;;3.20;;
68196;SDS011;55019;49.382;11.358;2022-07-29T13:38:39;4.97;;;3.20;;
68196;SDS011;55019;49.382;11.358;2022-07-29T13:41:05;7.72;;;3.75;;
68196;SDS011;55019;49.382;11.358;2022-07-29T13:43:30;3.60;;;2.50;;
68196;SDS011;55019;49.382;11.358;2022-07-29T13:45:56;2.70;;;2.50;;
68196;SDS011;55019;49.382;11.358;2022-07-29T13:48:21;2.90;;;2.70;;
68196;SDS011;55019;49.382;11.358;2022-07-29T13:50:47;7.32;;;3.25;;
68196;SDS011;55019;49.382;11.358;2022-07-29T13:53:13;4.83;;;2.50;;
68196;SDS011;55019;49.382;11.358;2022-07-29T13:55:39;4.05;;;2.67;;
68196;SDS011;55019;49.382;11.358;2022-07-29T13:58:04;4.37;;;3.03;;
68196;SDS011;55019;49.382;11.358;2022-07-29T14:00:29;3.13;;;2.53;;
68196;SDS011;55019;49.382;11.358;2022-07-29T14:02:56;4.75;;;3.03;;
68196;SDS011;55019;49.382;11.358;2022-07-29T14:05:21;3.97;;;3.53;;
68196;SDS011;55019;49.382;11.358;2022-07-29T14:07:47;3.40;;;2.57;;
68196;SDS011;55019;49.382;11.358;2022-07-29T14:10:12;3.90;;;3.20;;
68196;SDS011;55019;49.382;11.358;2022-07-29T14:12:38;5.13;;;3.37;;
68196;SDS011;55019;49.382;11.358;2022-07-29T14:15:03;4.57;;;2.90;;
68196;SDS011;55019;49.382;11.358;2022-07-29T14:17:29;3.67;;;3.30;;
68196;SDS011;55019;49.382;11.358;2022-07-29T14:19:54;10.98;;;3.00;;
68196;SDS011;55019;49.382;11.358;2022-07-29T14:22:20;7.73;;;2.80;;
68196;SDS011;55019;49.382;11.358;2022-07-29T14:24:45;3.00;;;2.80;;
68196;SDS011;55019;49.382;11.358;2022-07-29T14:27:11;2.67;;;2.47;;
68196;SDS011;55019;49.382;11.358;2022-07-29T14:29:36;5.40;;;2.73;;
68196;SDS011;55019;49.382;11.358;2022-07-29T14:32:02;3.00;;;2.70;;
68196;SDS011;55019;49.382;11.358;2022-07-29T14:34:28;3.30;;;3.00;;
68196;SDS011;55019;49.382;11.358;2022-07-29T14:36:54;3.63;;;2.70;;
68196;SDS011;55019;49.382;11.358;2022-07-29T14:39:21;3.53;;;3.05;;
68196;SDS011;55019;49.382;11.358;2022-07-29T14:41:48;4.15;;;3.08;;
68196;SDS011;55019;49.382;11.358;2022-07-29T14:44:14;2.95;;;2.65;;
68196;SDS011;55019;49.382;11.358;2022-07-29T14:46:39;3.77;;;2.70;;
68196;SDS011;55019;49.382;11.358;2022-07-29T14:49:05;3.50;;;3.20;;
68196;SDS011;55019;49.382;11.358;2022-07-29T14:51:32;4.93;;;4.45;;
68196;SDS011;55019;49.382;11.358;2022-07-29T14:53:57;4.13;;;3.10;;
68196;SDS011;55019;49.382;11.358;2022-07-29T14:56:24;3.13;;;2.92;;
68196;SDS011;55019;49.382;11.358;2022-07-29T14:58:49;2.33;;;2.17;;
68196;SDS011;55019;49.382;11.358;2022-07-29T15:01:15;3.95;;;2.60;;
68196;SDS011;55019;49.382;11.358;2022-07-29T15:03:40;3.07;;;2.80;;
68196;SDS011;55019;49.382;11.358;2022-07-29T15:06:09;4.87;;;3.40;;
68196;SDS011;55019;49.382;11.358;2022-07-29T15:08:34;2.95;;;2.65;;
68196;SDS011;55019;49.382;11.358;2022-07-29T15:11:00;6.00;;;4.50;;
68196;SDS011;55019;49.382;11.358;2022-07-29T15:13:25;8.27;;;2.55;;
68196;SDS011;55019;49.382;11.358;2022-07-29T15:15:51;2.83;;;2.67;;
68196;SDS011;55019;49.382;11.358;2022-07-29T15:18:17;3.93;;;2.73;;
68196;SDS011;55019;49.382;11.358;2022-07-29T15:20:43;4.93;;;2.67;;
68196;SDS011;55019;49.382;11.358;2022-07-29T15:23:10;3.30;;;2.90;;
68196;SDS011;55019;49.382;11.358;2022-07-29T15:25:37;5.88;;;2.50;;
68196;SDS011;55019;49.382;11.358;2022-07-29T15:28:08;5.65;;;2.40;;
68196;SDS011;55019;49.382;11.358;2022-07-29T15:30:33;3.10;;;2.90;;
68196;SDS011;55019;49.382;11.358;2022-07-29T15:33:01;3.30;;;2.07;;
68196;SDS011;55019;49.382;11.358;2022-07-29T15:35:27;2.45;;;2.22;;
68196;SDS011;55019;49.382;11.358;2022-07-29T15:37:53;2.77;;;2.30;;
68196;SDS011;55019;49.382;11.358;2022-07-29T15:40:18;4.10;;;3.00;;
68196;SDS011;55019;49.382;11.358;2022-07-29T15:42:44;6.67;;;3.03;;
68196;SDS011;55019;49.382;11.358;2022-07-29T15:45:09;3.40;;;2.87;;